»·PEaware :: N583SC KIFP-KDAG

N583SC :: KIFP-KDAG

FLIGHT INFORMATION

Flight Status: Arrived
Operator: Privately registered:
United States
More flights under this callsign
Pilot: Scott G. (88)
Aircraft: CESSNA 172 SKYHAWK
(C172)
More flights by this aircraft type
Origin: KIFP Laughlin/Bullhead Intl
United States
Destination: KDAG Barstow-Daggett
United States
More flights between these airports :: More routes between these airports
Route: +
File this flight plan on PilotEdge
Remarks:
Altitude:
(Current/Filed)
8,500ft
Speed:
(Current/Filed)
0kts
Departed: 12-Dec-17 09:10 AM
Arrived: 12-Dec-17 10:23 AM
Distance/Time
Traveled:
111nm/1:12
Distance/Time
To Go:
Arrived

Flight Plot

Page will automatically refresh every two minutes.

Flight plan parsing failed; only flown route is shown


Map Options




Map Legend


Flown Route
Filed Route
Departure Airport
Arrival Airport
Navaid (VOR, NDB)
Fix

Horizontal Profiles

Position Reports

Time Latitude Longitude Heading Altitude Ground
Speed
12-Dec-17 09:06 35.151073 -114.557611 181 705ft 31kts
12-Dec-17 09:07 35.145513 -114.557280 258 705ft 1kts
12-Dec-17 09:08 35.145591 -114.557365 353 705ft 0kts
12-Dec-17 09:09 35.145592 -114.557365 353 705ft 0kts
12-Dec-17 09:10 35.145591 -114.557365 353 705ft 0kts
12-Dec-17 09:11 35.145591 -114.557365 353 705ft 0kts
12-Dec-17 09:12 35.145591 -114.557365 353 705ft 0kts
12-Dec-17 09:13 35.145591 -114.557365 353 705ft 0kts
12-Dec-17 09:14 35.145874 -114.557682 277 705ft 2kts
12-Dec-17 09:15 35.145855 -114.558449 270 705ft 11kts
12-Dec-17 09:16 35.153498 -114.559332 359 1138ft 48kts
12-Dec-17 09:17 35.165249 -114.565033 317 2022ft 59kts
12-Dec-17 09:18 35.157445 -114.591259 266 2824ft 86kts
12-Dec-17 09:19 35.150787 -114.621493 273 3473ft 99kts
12-Dec-17 09:20 35.146495 -114.655993 274 4091ft 106kts
12-Dec-17 09:21 35.142867 -114.692416 272 4700ft 108kts
12-Dec-17 09:22 35.139763 -114.727675 273 5399ft 103kts
12-Dec-17 09:23 35.137005 -114.761542 273 6087ft 99kts
12-Dec-17 09:24 35.127985 -114.786392 229 6642ft 104kts
12-Dec-17 09:25 35.106694 -114.807323 211 7212ft 106kts
12-Dec-17 09:26 35.082464 -114.827967 211 7825ft 105kts
12-Dec-17 09:27 35.058801 -114.848148 210 8424ft 102kts
12-Dec-17 09:28 35.032126 -114.870874 212 8539ft 130kts
12-Dec-17 09:29 35.002337 -114.896560 213 8544ft 129kts
12-Dec-17 09:30 34.973099 -114.921801 214 8551ft 128kts
12-Dec-17 09:31 34.944747 -114.946293 215 8559ft 123kts
12-Dec-17 09:32 34.916646 -114.970526 216 8570ft 125kts
12-Dec-17 09:33 34.890483 -114.997524 232 8573ft 123kts
12-Dec-17 09:34 34.872838 -115.032749 248 8567ft 121kts
12-Dec-17 09:35 34.859750 -115.070494 252 8561ft 121kts
12-Dec-17 09:36 34.847953 -115.108827 254 8556ft 121kts
12-Dec-17 09:37 34.836463 -115.147520 254 8489ft 125kts
12-Dec-17 09:38 34.824918 -115.186697 255 8471ft 121kts
12-Dec-17 09:39 34.813504 -115.225513 255 8471ft 121kts
12-Dec-17 09:40 34.802146 -115.264145 255 8471ft 121kts
12-Dec-17 09:41 34.790739 -115.302927 255 8471ft 121kts
12-Dec-17 09:42 34.775488 -115.338534 208 8470ft 126kts
12-Dec-17 09:43 34.744255 -115.357680 209 8471ft 126kts
12-Dec-17 09:44 34.713096 -115.378769 211 8314ft 134kts
12-Dec-17 09:45 34.679758 -115.401997 211 7913ft 140kts
12-Dec-17 09:46 34.646048 -115.425600 211 7511ft 140kts
12-Dec-17 09:47 34.612461 -115.449123 211 7109ft 139kts
12-Dec-17 09:48 34.579047 -115.472507 211 6708ft 138kts
12-Dec-17 09:49 34.546999 -115.494894 211 6513ft 134kts
12-Dec-17 09:50 34.520928 -115.522360 275 5818ft 121kts
12-Dec-17 09:51 34.525397 -115.561988 282 5021ft 118kts
12-Dec-17 09:52 34.530507 -115.601099 282 4213ft 114kts
12-Dec-17 09:53 34.534077 -115.639515 277 2989ft 114kts
12-Dec-17 09:54 34.535721 -115.676995 259 1799ft 113kts
12-Dec-17 09:55 34.528181 -115.712110 256 1673ft 107kts
12-Dec-17 09:56 34.523126 -115.747540 265 1744ft 106kts
12-Dec-17 09:57 34.542918 -115.760707 1 1715ft 107kts
12-Dec-17 09:58 34.562088 -115.785051 298 1677ft 111kts
12-Dec-17 09:59 34.577319 -115.817777 301 1676ft 111kts
12-Dec-17 10:00 34.592651 -115.850437 293 1676ft 111kts
12-Dec-17 10:01 34.604579 -115.885342 293 1674ft 111kts
12-Dec-17 10:01 34.614433 -115.914212 293 1672ft 111kts
12-Dec-17 10:02 34.627973 -115.947906 299 1679ft 111kts
12-Dec-17 10:04 34.646955 -115.984560 305 1980ft 110kts
12-Dec-17 10:05 34.664927 -116.014652 307 2271ft 110kts
12-Dec-17 10:05 34.680272 -116.039429 307 2507ft 110kts
12-Dec-17 10:06 34.698805 -116.069023 308 2813ft 110kts
12-Dec-17 10:07 34.714739 -116.100245 278 3118ft 112kts
12-Dec-17 10:08 34.722227 -116.137366 286 3219ft 114kts
12-Dec-17 10:09 34.730457 -116.174531 287 3218ft 113kts
12-Dec-17 10:10 34.738880 -116.211468 288 3214ft 112kts
12-Dec-17 10:11 34.747396 -116.247721 287 3208ft 110kts
12-Dec-17 10:12 34.755606 -116.283447 287 3201ft 109kts
12-Dec-17 10:13 34.763830 -116.319379 286 3082ft 112kts
12-Dec-17 10:14 34.771998 -116.355135 286 3073ft 108kts
12-Dec-17 10:15 34.780020 -116.390238 285 3068ft 107kts
12-Dec-17 10:16 34.787943 -116.424922 285 3065ft 106kts
12-Dec-17 10:17 34.795850 -116.459536 285 3065ft 106kts
12-Dec-17 10:18 34.798889 -116.495282 273 3074ft 107kts
12-Dec-17 10:19 34.802682 -116.527994 298 3072ft 106kts
12-Dec-17 10:20 34.811729 -116.562242 284 3073ft 106kts
12-Dec-17 10:21 34.818450 -116.597295 283 3073ft 106kts
12-Dec-17 10:22 34.824942 -116.632426 283 3073ft 106kts
12-Dec-17 10:23 34.831359 -116.667285 282 3075ft 106kts
12-Dec-17 10:24 34.837859 -116.702605 282 3075ft 106kts
12-Dec-17 10:25 34.844135 -116.734381 285 2858ft 71kts
12-Dec-17 10:26 34.848693 -116.752403 283 2456ft 50kts
12-Dec-17 10:27 34.851657 -116.768714 267 2100ft 48kts
12-Dec-17 10:28 34.851511 -116.782766 287 1929ft 13kts
12-Dec-17 10:29 34.852529 -116.783479 280 1929ft 8kts
12-Dec-17 10:30 34.852508 -116.787747 270 1929ft 14kts
12-Dec-17 10:31 34.855667 -116.790367 91 1929ft 16kts
12-Dec-17 10:32 34.855745 -116.789927 338 1929ft 0kts
12-Dec-17 10:33 34.855644 -116.789887 339 1929ft 0kts
12-Dec-17 10:34 34.855644 -116.789887 339 1929ft 0kts

Navigation Log

Ident Type
Flight plan parsing failed, navigation log unavailable